Flight Track Log - Related Links

Times and Time Zones

All times are in EDT time to prevent confusion due to time zone crossing. See the SWA22 flight status page for this flight to view local times or setup timezone preferences in your user account.

Time Position Orientation Groundspeed Altitude Reporting Facility
EDT Latitude Longitude Course Direction KTS MPH feet Rate Location/Type
Wed 11:03:22 AM 26.2167 -97.6594 74° East 136 157 700  Level Houston Center
Wed 11:04:17 AM 26.2269 -97.6183 74° East 193 222 2,000 1,750 Climbing Houston Center
Wed 11:04:34 AM 26.2372 -97.5992 59° Northeast 204 235 2,800 1,747 Climbing Houston Center
Wed 11:05:36 AM 26.3086 -97.5850 10° North 267 307 4,300 2,226 Climbing Houston Center
Wed 11:06:38 AM 26.4044 -97.5764 North 317 365 7,400 3,216 Climbing Houston Center
Wed 11:07:41 AM 26.4928 -97.5689 North 318 366 11,000 2,928 Climbing Houston Center
Wed 11:08:43 AM 26.5986 -97.5553 North 357 411 13,500 2,710 Climbing Houston Center
Wed 11:09:45 AM 26.6925 -97.5053 25° Northeast 368 423 16,600 2,758 Climbing Houston Center
Wed 11:10:47 AM 26.7958 -97.4472 27° Northeast 386 444 19,200 2,371 Climbing Houston Center
Wed 11:11:49 AM 26.8947 -97.3894 28° Northeast 400 460 21,500 1,839 Climbing Houston Center
Wed 11:12:51 AM 27.0083 -97.3658 10° North 422 486 23,000 871 Climbing Houston Center
Wed 11:13:53 AM 27.1297 -97.3781 355° North 436 502 23,300 1,887 Climbing Houston Center
Wed 11:14:55 AM 27.2469 -97.3639 North 426 490 26,900 2,256 Climbing Houston Center
Wed 11:15:58 AM 27.3561 -97.2947 29° Northeast 447 514 28,000 1,536 Climbing Houston Center
Wed 11:17:00 AM 27.4608 -97.2264 30° Northeast 441 507 30,100 2,371 Climbing Houston Center
Wed 11:18:02 AM 27.5875 -97.1478 29° Northeast 435 501 32,900 1,403 Climbing Houston Center
Wed 11:19:04 AM 27.6878 -97.0842 29° Northeast 429 494 33,000 48 Climbing Houston Center
Wed 11:20:06 AM 27.7900 -97.0181 30° Northeast 425 489 33,000 -97 Level Houston Center
Wed 11:21:08 AM 27.8914 -96.9542 29° Northeast 420 483 32,800 -581 Descending Houston Center
Wed 11:22:10 AM 27.9836 -96.8675 40° Northeast 429 494 31,800 -1,056 Descending Houston Center
Wed 11:23:13 AM 28.0914 -96.7589 42° Northeast 433 498 30,600 -1,056 Descending Houston Center
Wed 11:24:15 AM 28.1828 -96.6658 42° Northeast 440 506 29,600 -919 Descending Houston Center
Wed 11:25:17 AM 28.2869 -96.5942 31° Northeast 438 504 28,700 -919 Descending Houston Center
Wed 11:26:19 AM 28.3986 -96.5347 25° Northeast 443 510 27,700 -968 Descending Houston Center
Wed 11:27:21 AM 28.5081 -96.4739 26° Northeast 440 506 26,700 -1,065 Descending Houston Center
Wed 11:28:23 AM 28.6356 -96.4033 26° Northeast 429 494 25,500 -1,355 Descending Houston Center
Wed 11:29:25 AM 28.7419 -96.3464 25° Northeast 425 489 23,900 -1,839 Descending Houston Center
Wed 11:30:27 AM 28.8450 -96.2894 26° Northeast 416 479 21,700 -2,064 Descending Houston Center
Wed 11:31:30 AM 28.9425 -96.2350 26° Northeast 397 457 19,600 -2,016 Descending Houston Center
Wed 11:32:32 AM 29.0367 -96.1839 25° Northeast 381 438 17,500 -2,177 Descending Houston Center
Wed 11:33:34 AM 29.1444 -96.1242 26° Northeast 363 418 15,100 -2,129 Descending Houston Center
Wed 11:34:36 AM 29.2336 -96.0753 26° Northeast 357 411 13,100 -1,842 Descending Houston Center
Wed 11:35:15 AM 29.2953 -96.0392 27° Northeast 343 395 12,000 -1,065 Descending Houston Center
Wed 11:35:38 AM 29.3150 -96.0239 34° Northeast 340 391 12,000  Level Houston Center
Wed 11:36:22 AM 29.3658 -95.9567 49° Northeast 346 398 12,000 -97 Level Houston Center
Wed 11:36:40 AM 29.3742 -95.9433 54° Northeast 343 395 11,900 -787 Descending Houston Center
Wed 11:37:23 AM 29.4317 -95.8703 48° Northeast 338 389 11,200 -774 Descending Houston Center
Wed 11:37:42 AM 29.4375 -95.8631 47° Northeast 342 394 11,100 -1,636 Descending Houston Center
Wed 11:38:18 AM 29.4864 -95.7992 49° Northeast 322 371 9,700 -2,032 Descending Houston Center
Wed 11:38:44 AM 29.5081 -95.7703 49° Northeast 324 373 9,000 -2,149 Descending Houston Center
Wed 11:39:25 AM 29.5483 -95.7175 49° Northeast 307 353 7,300 -2,226 Descending Houston Center
Wed 11:39:46 AM 29.5644 -95.6969 48° Northeast 310 357 6,700 -1,258 Descending Houston Center
Wed 11:40:27 AM 29.6047 -95.6436 49° Northeast 300 345 6,000 -677 Descending Houston Center
Wed 11:40:48 AM 29.6192 -95.6264 46° Northeast 301 346 6,000 -197 Level Houston Center
Wed 11:41:28 AM 29.6556 -95.5800 48° Northeast 253 291 5,800 -484 Descending Houston Center
Wed 11:41:50 AM 29.6661 -95.5675 46° Northeast 261 300 5,500 -1,300 Descending Houston Center
Wed 11:42:28 AM 29.7031 -95.5239 46° Northeast 248 285 4,500 -1,258 Descending Houston Center
Wed 11:42:52 AM 29.7153 -95.5114 42° Northeast 253 291 4,200 -1,179 Descending Houston Center
Wed 11:43:24 AM 29.7492 -95.4750 43° Northeast 238 274 3,400 -1,161 Descending Houston Center
Wed 11:43:54 AM 29.7669 -95.4606 35° Northeast 247 284 3,000 -1,151 Descending Houston Center
Wed 11:44:37 AM 29.7558 -95.4117 105° East 184 212 2,000 -968 Descending Houston Center
Wed 11:44:56 AM 29.7472 -95.4000 130° Southeast 207 238 2,000  Level Houston Center
Wed 11:45:32 AM 29.7278 -95.3789 137° Southeast 151 174 2,000 -97 Level Houston Center
Wed 11:45:58 AM 29.7172 -95.3653 132° Southeast 173 199 1,900 -492 Descending Houston Center
Wed 11:46:33 AM 29.6992 -95.3439 134° Southeast 131 151 1,500 -581 Descending Houston Center
Wed 11:47:00 AM 29.6908 -95.3333 132° Southeast 155 178 1,300 -590 Descending Houston Center
Wed 11:47:34 AM 29.6781 -95.3175 133° Southeast 114 131 900 -581 Descending Houston Center
Wed 11:48:02 AM 29.6694 -95.3078 136° Southeast 131 151 700 -467 Descending Houston Center
Wed 11:49:04 AM 29.6458 -95.2806 135° Southeast 120 138 200 -484 Descending Houston Center

Login

Don't have an account? Register now (free) for customized features, flight alerts, and more!